Time;durP1;ratioP1;P1;durP2;ratioP2;P2;SDS_P1;SDS_P2;PMS_P1;PMS_P2;Temp;Humidity;BMP_temperature;BMP_pressure;BME280_temperature;BME280_humidity;BME280_pressure;Samples;Min_cycle;Max_cycle;Signal;HPM_P1;HPM_P2
2023/06/18 00:04:32;;;;;;;6.30;2.88;;;;;;;21.60;100.00;100411.34;20996170;28;20081;-79
2023/06/18 00:14:56;;;;;;;7.00;2.50;;;;;;;21.66;100.00;100409.31;20985260;28;20063;-79
2023/06/18 00:25:18;;;;;;;7.38;2.88;;;;;;;21.56;100.00;100404.34;20984647;28;20070;-79
2023/06/18 00:35:42;;;;;;;9.52;2.80;;;;;;;21.40;100.00;100412.94;21004212;28;20044;-79
2023/06/18 00:46:09;;;;;;;7.78;2.88;;;;;;;21.34;100.00;100425.69;20965875;28;20040;-79
2023/06/18 00:56:37;;;;;;;9.63;2.65;;;;;;;21.38;100.00;100420.19;20987564;28;20568;-79
2023/06/18 01:07:02;;;;;;;7.00;2.63;;;;;;;21.13;100.00;100429.97;20966142;28;20049;-80
2023/06/18 01:17:33;;;;;;;6.25;2.63;;;;;;;21.26;100.00;100434.03;20980179;28;20051;-80
2023/06/18 01:27:57;;;;;;;8.05;2.35;;;;;;;21.37;100.00;100431.84;20973867;28;20135;-79
2023/06/18 01:38:31;;;;;;;5.47;2.22;;;;;;;21.28;100.00;100437.53;21026945;28;20048;-79
2023/06/18 01:48:57;;;;;;;9.85;2.10;;;;;;;21.35;100.00;100451.63;20979606;28;20339;-79
2023/06/18 01:59:21;;;;;;;6.95;2.75;;;;;;;21.59;100.00;100444.56;20968555;28;20602;-79
2023/06/18 02:09:44;;;;;;;8.15;2.50;;;;;;;21.59;100.00;100445.44;20989330;28;20079;-78
2023/06/18 02:20:10;;;;;;;5.65;2.42;;;;;;;21.61;100.00;100439.97;21002611;28;20056;-80
2023/06/18 02:30:33;;;;;;;8.30;2.63;;;;;;;21.58;100.00;100434.72;20995568;28;20056;-79
2023/06/18 02:40:57;;;;;;;5.95;2.40;;;;;;;21.37;100.00;100449.78;21011211;28;20053;-79
2023/06/18 02:51:20;;;;;;;6.85;2.60;;;;;;;21.15;100.00;100459.41;20986602;28;20044;-78
2023/06/18 03:01:45;;;;;;;11.02;3.03;;;;;;;21.21;100.00;100464.63;20964023;28;20071;-80
2023/06/18 03:12:08;;;;;;;6.53;2.25;;;;;;;21.32;100.00;100481.28;20978589;28;20052;-79
2023/06/18 03:22:33;;;;;;;7.40;2.22;;;;;;;21.53;100.00;100479.69;20975490;28;20048;-79
2023/06/18 03:33:00;;;;;;;8.82;2.70;;;;;;;21.57;100.00;100475.94;21004198;28;20049;-79
2023/06/18 03:43:26;;;;;;;6.78;2.13;;;;;;;21.51;100.00;100473.47;21002815;28;20052;-78
2023/06/18 03:53:50;;;;;;;6.00;2.30;;;;;;;21.73;100.00;100478.03;20964781;28;20059;-79
2023/06/18 04:04:14;;;;;;;5.00;1.88;;;;;;;22.14;100.00;100491.88;20981958;28;20045;-79
2023/06/18 04:14:27;;;;;;;7.95;1.98;;;;;;;22.44;100.00;100495.25;20987623;28;20056;-79
2023/06/18 04:24:51;;;;;;;7.47;2.47;;;;;;;23.19;100.00;100504.00;21010006;28;20518;-79
2023/06/18 04:35:14;;;;;;;8.52;2.20;;;;;;;23.88;100.00;100502.91;20985426;28;20147;-80
2023/06/18 04:45:38;;;;;;;6.65;1.85;;;;;;;24.18;100.00;100516.84;20976686;28;20056;-79
2023/06/18 04:56:01;;;;;;;7.53;2.40;;;;;;;24.47;100.00;100527.28;20981016;28;20048;-79
2023/06/18 05:06:30;;;;;;;9.33;2.90;;;;;;;24.90;100.00;100544.22;20995040;28;20052;-80
2023/06/18 05:16:53;;;;;;;9.27;2.65;;;;;;;25.76;100.00;100553.50;20992901;28;20053;-77
2023/06/18 05:27:17;;;;;;;8.95;2.47;;;;;;;26.43;100.00;100557.28;20980382;28;20052;-79
2023/06/18 05:37:41;;;;;;;7.90;2.20;;;;;;;27.02;100.00;100558.63;20974894;28;20129;-79
2023/06/18 05:48:08;;;;;;;10.35;1.73;;;;;;;27.56;100.00;100577.22;20975147;28;20605;-78
2023/06/18 05:58:40;;;;;;;;;;;;;;;28.30;100.00;100584.59;20961773;28;20518;-79
2023/06/18 06:09:04;;;;;;;8.85;2.65;;;;;;;28.57;100.00;100584.75;20967299;28;20398;-78
2023/06/18 06:19:28;;;;;;;8.23;2.03;;;;;;;29.40;96.46;100584.06;20973878;28;20068;-79
2023/06/18 06:29:52;;;;;;;6.68;1.60;;;;;;;30.01;90.69;100578.13;20986954;28;20431;-80
2023/06/18 06:40:15;;;;;;;6.10;1.90;;;;;;;30.69;81.23;100573.38;20993790;28;20135;-81
2023/06/18 06:50:40;;;;;;;8.23;1.85;;;;;;;31.07;73.57;100572.50;20980015;28;20094;-78
2023/06/18 07:01:15;;;;;;;;;;;;;;;31.96;64.13;100574.00;20978548;28;20056;-80
2023/06/18 07:11:40;;;;;;;15.30;2.92;;;;;;;32.40;61.67;100573.31;20982621;28;20364;-78
2023/06/18 07:22:02;;;;;;;17.47;2.40;;;;;;;32.42;61.43;100573.19;20954869;28;20052;-80
2023/06/18 07:32:27;;;;;;;41.90;5.72;;;;;;;32.25;58.43;100571.75;20964944;28;20097;-79
2023/06/18 07:42:49;;;;;;;17.88;3.15;;;;;;;32.25;58.88;100579.09;20987731;28;20048;-81
2023/06/18 07:52:54;;;;;;;9.70;2.15;;;;;;;32.42;58.93;100582.28;20999419;28;20523;-79
2023/06/18 08:03:18;;;;;;;5.65;1.58;;;;;;;31.71;61.37;100595.94;20971198;28;20044;-81
2023/06/18 08:13:42;;;;;;;12.13;2.22;;;;;;;32.06;61.45;100585.94;20927828;28;20124;-79
2023/06/18 08:24:05;;;;;;;6.47;1.60;;;;;;;32.51;54.23;100612.59;20958385;28;20094;-78
2023/06/18 08:34:30;;;;;;;6.07;1.60;;;;;;;32.27;55.84;100616.25;20974899;28;20050;-80
2023/06/18 08:44:53;;;;;;;7.22;1.50;;;;;;;32.43;59.96;100625.00;20960858;28;20049;-78
2023/06/18 08:55:17;;;;;;;7.13;1.90;;;;;;;32.46;57.01;100626.63;20975269;28;20045;-81
2023/06/18 09:05:41;;;;;;;5.85;1.77;;;;;;;32.76;59.14;100620.63;20980277;28;20052;-79
2023/06/18 09:16:05;;;;;;;9.18;1.98;;;;;;;33.32;56.02;100621.59;20959056;28;20048;-78
2023/06/18 09:26:28;;;;;;;6.25;1.63;;;;;;;33.12;55.05;100622.31;20966278;28;20048;-77
2023/06/18 09:36:37;;;;;;;6.93;1.60;;;;;;;33.25;51.14;100624.94;20931414;28;20459;-78
2023/06/18 09:46:59;;;;;;;5.88;1.38;;;;;;;32.82;54.09;100631.13;20958615;28;20044;-77
2023/06/18 09:57:11;;;;;;;8.88;1.90;;;;;;;33.66;52.70;100640.72;20977385;28;20040;-78
2023/06/18 10:07:34;;;;;;;;;;;;;;;33.17;54.55;100629.16;20976465;28;20072;-78
2023/06/18 10:18:00;;;;;;;7.50;1.60;;;;;;;33.46;56.71;100628.69;20985323;28;19920;-78
2023/06/18 10:28:23;;;;;;;9.20;2.45;;;;;;;32.92;54.72;100629.38;20978983;28;20099;-78
2023/06/18 10:38:48;;;;;;;9.52;2.13;;;;;;;32.82;59.32;100618.28;20990116;28;20123;-79
2023/06/18 10:49:14;;;;;;;9.87;2.70;;;;;;;32.59;64.62;100615.59;20981223;28;20071;-79
2023/06/18 10:59:33;;;;;;;9.53;3.10;;;;;;;32.61;69.50;100619.09;20948605;28;20046;-80
2023/06/18 11:09:58;;;;;;;8.88;2.25;;;;;;;32.85;69.28;100639.06;20960288;28;20056;-79
2023/06/18 11:20:11;;;;;;;12.20;2.92;;;;;;;33.40;69.43;100637.41;20974651;28;20060;-81
2023/06/18 11:30:33;;;;;;;6.93;2.80;;;;;;;33.37;69.78;100645.84;20971149;28;20066;-81
2023/06/18 11:40:58;;;;;;;10.60;3.17;;;;;;;33.14;73.12;100615.72;20968898;28;20071;-81
2023/06/18 11:51:21;;;;;;;10.07;2.70;;;;;;;32.40;74.72;100618.91;20954204;28;20056;-81
2023/06/18 12:01:46;;;;;;;5.97;2.42;;;;;;;32.98;69.95;100612.47;20981914;28;20053;-81
2023/06/18 12:12:20;;;;;;;5.85;2.50;;;;;;;32.55;71.45;100625.03;20965768;28;20143;-81
2023/06/18 12:22:44;;;;;;;6.05;2.20;;;;;;;33.18;68.52;100639.09;20920927;28;20456;-82
2023/06/18 12:33:09;;;;;;;9.35;3.47;;;;;;;33.95;61.46;100655.63;20979311;28;20090;-81
2023/06/18 12:43:40;;;;;;;6.78;3.15;;;;;;;33.04;57.83;100655.75;20938147;28;20056;-80
2023/06/18 12:54:02;;;;;;;4.43;2.95;;;;;;;32.49;61.96;100658.34;20955959;28;20041;-82
2023/06/18 13:04:26;;;;;;;5.72;2.95;;;;;;;32.75;60.34;100658.09;20976754;28;20484;-81
2023/06/18 13:14:46;;;;;;;6.07;3.17;;;;;;;32.45;61.55;100649.47;20968263;28;20037;-79
2023/06/18 13:25:10;;;;;;;4.80;3.17;;;;;;;31.56;67.29;100646.22;20975936;28;20083;-80
2023/06/18 13:35:24;;;;;;;5.85;3.40;;;;;;;30.85;77.82;100650.34;20976253;28;20076;-79
2023/06/18 13:45:49;;;;;;;6.85;3.25;;;;;;;30.52;83.95;100660.03;20976754;28;20106;-80
2023/06/18 13:56:12;;;;;;;8.38;3.55;;;;;;;30.03;92.01;100661.47;20973109;28;20070;-80
2023/06/18 14:06:25;;;;;;;8.30;3.67;;;;;;;29.92;92.61;100657.72;20979116;28;20052;-78
2023/06/18 14:16:42;;;;;;;6.15;2.78;;;;;;;29.68;89.80;100666.47;20981569;28;20501;-81
2023/06/18 14:27:08;;;;;;;5.38;2.90;;;;;;;29.46;94.61;100673.44;20972436;28;20076;-80
2023/06/18 14:37:31;;;;;;;5.75;3.40;;;;;;;28.89;98.95;100668.78;20921857;28;20098;-80
2023/06/18 14:47:55;;;;;;;7.47;3.47;;;;;;;28.62;100.00;100673.16;20981745;28;20076;-80
2023/06/18 14:58:18;;;;;;;8.70;3.67;;;;;;;28.25;100.00;100662.75;20958485;28;20078;-79
2023/06/18 15:08:42;;;;;;;8.63;3.90;;;;;;;28.47;100.00;100655.09;20975631;28;20122;-80
2023/06/18 15:19:05;;;;;;;11.27;5.38;;;;;;;28.28;100.00;100654.44;20958102;28;20118;-80
2023/06/18 15:29:09;;;;;;;11.73;4.75;;;;;;;28.00;100.00;100666.91;20963356;28;20041;-80
2023/06/18 15:39:31;;;;;;;11.95;5.30;;;;;;;28.03;100.00;100671.25;20960960;28;20040;-80
2023/06/18 15:49:55;;;;;;;13.60;5.45;;;;;;;27.56;100.00;100693.88;20972711;28;20052;-80
2023/06/18 15:59:57;;;;;;;11.52;5.10;;;;;;;27.27;100.00;100690.00;20947177;28;20355;-80
2023/06/18 16:10:21;;;;;;;9.25;4.55;;;;;;;27.11;100.00;100693.66;20968340;28;20049;-80
2023/06/18 16:20:43;;;;;;;12.73;5.53;;;;;;;27.00;100.00;100701.44;20958694;28;20137;-80
2023/06/18 16:31:07;;;;;;;11.32;5.20;;;;;;;26.75;100.00;100716.25;20974557;28;20044;-79
2023/06/18 16:41:30;;;;;;;10.30;5.85;;;;;;;26.53;100.00;100726.44;20945834;28;20060;-79
2023/06/18 16:51:54;;;;;;;15.52;5.65;;;;;;;26.50;100.00;100745.56;20968905;28;20488;-79
2023/06/18 17:02:17;;;;;;;14.32;5.45;;;;;;;26.17;100.00;100754.38;20958810;28;20048;-78
2023/06/18 17:12:41;;;;;;;14.07;6.47;;;;;;;26.04;100.00;100768.59;20985813;28;20114;-80
2023/06/18 17:23:04;;;;;;;12.18;6.05;;;;;;;25.82;100.00;100771.44;20995941;28;20500;-82
2023/06/18 17:33:28;;;;;;;13.93;5.38;;;;;;;25.57;100.00;100774.41;20997227;28;20134;-79
2023/06/18 17:43:50;;;;;;;15.60;7.00;;;;;;;25.53;100.00;100798.94;20992712;28;20049;-80
2023/06/18 17:54:15;;;;;;;15.57;6.45;;;;;;;25.01;100.00;100782.31;20983082;28;20082;-82
2023/06/18 18:04:37;;;;;;;13.68;6.70;;;;;;;24.82;100.00;100800.22;20971630;28;20052;-79
2023/06/18 18:15:02;;;;;;;12.10;6.63;;;;;;;24.71;100.00;100806.09;20971112;28;20110;-78
2023/06/18 18:25:24;;;;;;;13.65;5.97;;;;;;;24.68;100.00;100814.31;20973423;28;20083;-80
2023/06/18 18:35:48;;;;;;;9.77;5.60;;;;;;;24.63;100.00;100838.81;20984214;28;20048;-80
2023/06/18 18:46:11;;;;;;;8.10;4.88;;;;;;;24.49;100.00;100856.50;20956974;28;20045;-80
2023/06/18 18:56:17;;;;;;;9.50;4.53;;;;;;;24.51;100.00;100871.69;20989065;28;20063;-79
2023/06/18 19:06:39;;;;;;;17.98;5.03;;;;;;;23.96;100.00;100878.31;20983181;28;20052;-74
2023/06/18 19:17:03;;;;;;;15.73;5.63;;;;;;;23.78;100.00;100896.06;20986038;28;20060;-77
2023/06/18 19:27:26;;;;;;;14.55;6.03;;;;;;;23.70;100.00;100908.94;20964146;28;20098;-76
2023/06/18 19:37:49;;;;;;;15.52;6.00;;;;;;;23.60;100.00;100912.94;20983843;28;20084;-77
2023/06/18 19:48:12;;;;;;;14.55;5.80;;;;;;;23.42;100.00;100925.22;20958279;28;20602;-78
2023/06/18 19:58:30;;;;;;;10.77;5.53;;;;;;;23.47;100.00;100921.47;20954818;28;20134;-79
2023/06/18 20:08:54;;;;;;;12.75;5.75;;;;;;;23.57;100.00;100922.91;20944183;28;20048;-80
2023/06/18 20:19:18;;;;;;;12.38;4.93;;;;;;;23.44;100.00;100917.94;20946835;28;20067;-80
2023/06/18 20:29:40;;;;;;;10.05;3.30;;;;;;;23.07;100.00;100924.63;20956852;28;20053;-80
2023/06/18 20:40:06;;;;;;;11.13;3.53;;;;;;;22.88;100.00;100941.41;20948965;28;20049;-83
2023/06/18 20:50:30;;;;;;;6.60;2.65;;;;;;;22.63;100.00;100932.31;20968850;28;20044;-83
2023/06/18 21:00:54;;;;;;;6.70;2.65;;;;;;;22.46;100.00;100935.50;20971914;28;20070;-83
2023/06/18 21:10:57;;;;;;;7.22;1.92;;;;;;;22.30;100.00;100938.72;20978990;28;20044;-83
2023/06/18 21:21:21;;;;;;;5.53;1.52;;;;;;;22.10;100.00;100932.13;20980284;28;20064;-84
2023/06/18 21:31:45;;;;;;;10.15;1.67;;;;;;;21.98;100.00;100921.72;20981990;28;20037;-85
2023/06/18 21:42:09;;;;;;;9.45;1.65;;;;;;;21.91;100.00;100917.41;20973150;28;20055;-84
2023/06/18 21:52:32;;;;;;;6.68;1.63;;;;;;;21.97;100.00;100906.50;20976839;28;20048;-84
2023/06/18 22:02:57;;;;;;;4.28;1.70;;;;;;;21.79;100.00;100905.16;21001208;28;20044;-86
2023/06/18 22:13:20;;;;;;;7.82;1.60;;;;;;;21.77;100.00;100906.16;21004027;28;20094;-86
2023/06/18 22:23:44;;;;;;;6.65;1.67;;;;;;;21.87;100.00;100897.78;21003609;28;20113;-85
2023/06/18 22:34:09;;;;;;;8.98;1.90;;;;;;;21.75;100.00;100895.44;20962224;28;20527;-84
2023/06/18 22:44:35;;;;;;;11.63;2.47;;;;;;;21.74;100.00;100884.72;20949676;28;20059;-84
2023/06/18 22:54:58;;;;;;;7.72;2.33;;;;;;;21.82;100.00;100883.59;20964353;28;20036;-83
2023/06/18 23:05:03;;;;;;;10.05;2.20;;;;;;;21.72;100.00;100883.91;20977285;28;20048;-82
2023/06/18 23:15:26;;;;;;;7.05;2.25;;;;;;;21.74;100.00;100884.72;20992054;28;20056;-83
2023/06/18 23:25:50;;;;;;;10.77;3.25;;;;;;;21.62;100.00;100882.41;20964398;28;20417;-82
2023/06/18 23:36:13;;;;;;;8.98;3.08;;;;;;;21.58;100.00;100873.56;20971273;28;20710;-81
2023/06/18 23:46:37;;;;;;;10.93;3.78;;;;;;;21.57;100.00;100865.53;20968739;28;20090;-81
2023/06/18 23:57:04;;;;;;;7.53;4.10;;;;;;;21.50;100.00;100866.63;21008245;28;20056;-83
